createdAt,value
2019-02-08T00:02:28.560Z,22.23
2019-02-08T00:04:59.741Z,22.97
2019-02-08T00:07:31.055Z,19.67
2019-02-08T00:10:02.412Z,22.20
2019-02-08T00:12:33.777Z,22.83
2019-02-08T00:15:06.489Z,25.50
2019-02-08T00:17:37.985Z,25.03
2019-02-08T00:20:09.899Z,24.73
2019-02-08T00:22:41.171Z,21.97
2019-02-08T00:25:14.845Z,24.07
2019-02-08T00:27:46.089Z,22.90
2019-02-08T00:30:20.278Z,28.77
2019-02-08T00:32:51.580Z,24.27
2019-02-08T00:35:22.984Z,27.33
2019-02-08T00:37:54.187Z,22.03
2019-02-08T00:40:25.510Z,26.20
2019-02-08T00:42:57.125Z,23.30
2019-02-08T00:45:28.374Z,22.80
2019-02-08T00:47:59.541Z,25.40
2019-02-08T00:50:30.769Z,19.93
2019-02-08T00:53:01.982Z,20.70
2019-02-08T00:55:33.246Z,18.30
2019-02-08T00:58:04.740Z,21.03
2019-02-08T01:00:35.903Z,18.93
2019-02-08T01:03:07.298Z,17.67
2019-02-08T01:05:38.573Z,19.27
2019-02-08T01:08:09.724Z,19.30
2019-02-08T01:10:41.186Z,19.67
2019-02-08T01:13:12.359Z,18.13
2019-02-08T01:15:43.725Z,20.00
2019-02-08T01:18:14.897Z,17.03
2019-02-08T01:20:46.117Z,15.80
2019-02-08T01:23:18.297Z,22.67
2019-02-08T01:25:49.554Z,14.33
2019-02-08T01:28:20.729Z,20.50
2019-02-08T01:30:52.033Z,16.43
2019-02-08T01:33:23.196Z,17.33
2019-02-08T01:35:54.368Z,19.63
2019-02-08T01:38:25.555Z,18.67
2019-02-08T01:40:56.775Z,23.90
2019-02-08T01:43:28.039Z,26.83
2019-02-08T01:45:59.239Z,25.33
2019-02-08T01:48:30.396Z,20.57
2019-02-08T01:51:01.674Z,24.57
2019-02-08T01:53:32.873Z,23.90
2019-02-08T01:56:04.054Z,26.87
2019-02-08T01:58:35.353Z,24.50
2019-02-08T02:01:06.777Z,23.33
2019-02-08T02:03:37.922Z,24.60
2019-02-08T02:06:09.346Z,26.43
2019-02-08T02:08:40.552Z,26.60
2019-02-08T02:11:11.894Z,22.23
2019-02-08T02:13:43.289Z,20.90
2019-02-08T02:16:14.503Z,20.40
2019-02-08T02:18:45.831Z,25.53
2019-02-08T02:21:17.036Z,22.07
2019-02-08T02:23:48.238Z,25.10
2019-02-08T02:26:19.631Z,26.20
2019-02-08T02:28:50.970Z,27.50
2019-02-08T02:31:22.398Z,24.87
2019-02-08T02:33:55.172Z,22.50
2019-02-08T02:36:43.033Z,24.30
2019-02-08T02:39:27.880Z,28.13
2019-02-08T02:42:25.196Z,21.13
2019-02-08T02:45:20.366Z,25.40
2019-02-08T02:47:54.991Z,27.37
2019-02-08T02:50:40.799Z,25.80
2019-02-08T02:53:27.386Z,20.10
2019-02-08T02:56:05.138Z,18.10
2019-02-08T02:58:36.518Z,22.43
2019-02-08T03:01:08.042Z,23.03
2019-02-08T03:03:39.529Z,22.10
2019-02-08T03:06:11.014Z,22.63
2019-02-08T03:08:42.704Z,20.63
2019-02-08T03:11:14.170Z,21.50
2019-02-08T03:13:46.372Z,22.40
2019-02-08T03:16:17.951Z,22.63
2019-02-08T03:18:49.445Z,25.83
2019-02-08T03:21:21.022Z,22.57
2019-02-08T03:23:52.636Z,19.97
2019-02-08T03:26:34.979Z,19.67
2019-02-08T03:29:06.570Z,20.17
2019-02-08T03:31:38.759Z,19.40
2019-02-08T03:34:12.047Z,19.87
2019-02-08T03:36:45.260Z,23.57
2019-02-08T03:39:17.153Z,22.17
2019-02-08T03:41:48.640Z,24.37
2019-02-08T03:44:20.846Z,18.53
2019-02-08T03:46:52.466Z,19.47
2019-02-08T03:49:24.051Z,23.43
2019-02-08T03:51:56.201Z,17.70
2019-02-08T03:54:27.935Z,19.97
2019-02-08T03:56:59.301Z,21.10
2019-02-08T03:59:30.840Z,23.10
2019-02-08T04:02:20.089Z,17.83
2019-02-08T04:05:11.398Z,17.90
2019-02-08T04:08:02.565Z,19.90
2019-02-08T04:10:36.147Z,19.30
2019-02-08T04:13:23.954Z,15.57
2019-02-08T04:16:02.837Z,16.67
2019-02-08T04:18:34.210Z,19.00
2019-02-08T04:21:05.543Z,17.07
2019-02-08T04:24:03.384Z,18.80
2019-02-08T04:26:42.831Z,14.10
2019-02-08T04:29:15.277Z,14.20
2019-02-08T04:32:04.024Z,15.97
2019-02-08T04:34:43.075Z,18.13
2019-02-08T04:37:22.755Z,14.17
2019-02-08T04:40:15.197Z,14.43
2019-02-08T04:42:52.479Z,14.87
2019-02-08T04:45:40.960Z,11.27
2019-02-08T04:48:21.311Z,14.63
2019-02-08T04:51:12.498Z,18.20
2019-02-08T04:53:43.993Z,17.37
2019-02-08T04:56:15.370Z,11.47
2019-02-08T04:58:46.626Z,13.60
2019-02-08T05:01:18.078Z,12.50
2019-02-08T05:03:49.424Z,14.03
2019-02-08T05:06:20.960Z,12.50
2019-02-08T05:08:52.296Z,15.47
2019-02-08T05:11:23.675Z,13.87
2019-02-08T05:13:55.024Z,13.73
2019-02-08T05:16:26.577Z,19.43
2019-02-08T05:18:57.877Z,12.57
2019-02-08T05:21:29.385Z,10.53
2019-02-08T05:24:01.910Z,10.03
2019-02-08T05:26:33.258Z,10.97
2019-02-08T05:29:04.550Z,12.07
2019-02-08T05:31:35.876Z,11.57
2019-02-08T05:34:07.179Z,10.43
2019-02-08T05:36:38.619Z,10.43
2019-02-08T05:39:11.416Z,12.07
2019-02-08T05:41:45.319Z,7.97
2019-02-08T05:44:17.631Z,11.87
2019-02-08T05:46:49.808Z,10.67
2019-02-08T05:49:25.026Z,11.07
2019-02-08T05:51:57.086Z,12.20
2019-02-08T05:54:31.069Z,10.20
2019-02-08T05:57:03.097Z,13.77
2019-02-08T05:59:36.154Z,13.57
2019-02-08T06:02:07.533Z,13.50
2019-02-08T06:04:38.824Z,11.50
2019-02-08T06:07:11.104Z,12.20
2019-02-08T06:09:42.397Z,20.83
2019-02-08T06:12:14.841Z,13.83
2019-02-08T06:14:46.239Z,12.47
2019-02-08T06:17:17.720Z,14.10
2019-02-08T06:19:49.162Z,16.83
2019-02-08T06:22:20.537Z,13.90
2019-02-08T06:24:52.171Z,10.63
2019-02-08T06:27:23.897Z,18.07
2019-02-08T06:29:55.386Z,14.57
2019-02-08T06:32:26.724Z,19.13
2019-02-08T06:34:57.942Z,9.87
2019-02-08T06:37:29.237Z,11.17
2019-02-08T06:40:00.669Z,13.77
2019-02-08T06:42:34.062Z,14.17
2019-02-08T06:45:07.704Z,14.87
2019-02-08T06:47:39.092Z,10.50
2019-02-08T06:50:11.531Z,14.77
2019-02-08T06:52:43.167Z,15.20
2019-02-08T06:55:14.681Z,14.50
2019-02-08T06:58:11.210Z,11.57
2019-02-08T07:00:50.747Z,10.70
2019-02-08T07:03:39.948Z,10.20
2019-02-08T07:06:30.232Z,15.77
2019-02-08T07:09:14.713Z,11.17
2019-02-08T07:12:04.192Z,9.00
2019-02-08T07:14:56.893Z,10.07
2019-02-08T07:17:48.209Z,10.77
2019-02-08T07:20:38.687Z,11.37
2019-02-08T07:23:34.781Z,8.87
2019-02-08T07:26:28.068Z,12.30
2019-02-08T07:29:20.939Z,12.47
2019-02-08T07:32:14.203Z,8.60
2019-02-08T07:35:07.443Z,7.87
2019-02-08T07:37:56.909Z,12.93
2019-02-08T07:40:54.687Z,11.23
2019-02-08T07:43:43.899Z,8.07
2019-02-08T07:46:26.303Z,10.30
2019-02-08T07:49:20.033Z,13.40
2019-02-08T07:51:59.006Z,8.13
2019-02-08T07:54:52.996Z,10.53
2019-02-08T07:57:50.002Z,8.77
2019-02-08T08:00:43.586Z,9.70
2019-02-08T08:03:27.468Z,11.80
2019-02-08T08:06:28.249Z,8.87
2019-02-08T08:09:28.023Z,8.63
2019-02-08T08:12:34.013Z,11.23
2019-02-08T08:15:19.478Z,11.93
2019-02-08T08:18:03.675Z,8.47
2019-02-08T08:20:52.844Z,8.00
2019-02-08T08:23:39.408Z,8.00
2019-02-08T08:26:29.959Z,11.73
2019-02-08T08:29:04.044Z,9.67
2019-02-08T08:32:06.044Z,8.73
2019-02-08T08:34:49.093Z,11.10
2019-02-08T08:38:03.422Z,9.47
2019-02-08T08:41:18.425Z,8.53
2019-02-08T08:44:17.182Z,9.03
2019-02-08T08:47:33.318Z,8.83
2019-02-08T08:50:51.449Z,9.03
2019-02-08T08:54:12.918Z,8.53
2019-02-08T08:57:30.911Z,9.40
2019-02-08T09:00:48.071Z,7.30
2019-02-08T09:04:04.290Z,9.40
2019-02-08T09:07:16.319Z,7.90
2019-02-08T09:10:23.713Z,9.33
2019-02-08T09:13:36.175Z,9.87
2019-02-08T09:16:47.153Z,11.03
2019-02-08T09:20:02.180Z,12.10
2019-02-08T09:23:06.229Z,8.50
2019-02-08T09:26:12.441Z,8.40
2019-02-08T09:29:16.749Z,7.93
2019-02-08T09:32:40.244Z,12.03
2019-02-08T09:35:49.785Z,6.43
2019-02-08T09:38:57.614Z,12.97
2019-02-08T09:42:08.265Z,7.43
2019-02-08T09:45:02.134Z,6.80
2019-02-08T09:48:13.238Z,7.43
2019-02-08T09:51:18.664Z,11.43
2019-02-08T09:54:34.122Z,10.93
2019-02-08T09:57:52.632Z,9.73
2019-02-08T10:01:03.775Z,8.50
2019-02-08T10:04:13.718Z,6.93
2019-02-08T10:07:12.396Z,8.13
2019-02-08T10:10:40.231Z,8.30
2019-02-08T10:13:54.230Z,9.13
2019-02-08T10:17:20.555Z,6.60
2019-02-08T10:20:16.100Z,6.50
2019-02-08T10:23:23.999Z,7.57
2019-02-08T10:26:25.771Z,7.60
2019-02-08T10:29:46.976Z,9.03
2019-02-08T10:32:55.017Z,10.13
2019-02-08T10:36:00.248Z,8.33
2019-02-08T10:39:08.358Z,8.03
2019-02-08T10:42:23.434Z,9.77
2019-02-08T10:45:45.183Z,8.43
2019-02-08T10:49:00.726Z,12.93
2019-02-08T10:52:07.993Z,12.03
2019-02-08T10:55:41.888Z,8.20
2019-02-08T10:58:55.892Z,7.37
2019-02-08T11:02:03.792Z,7.23
2019-02-08T11:05:18.006Z,11.47
2019-02-08T11:08:37.221Z,6.70
2019-02-08T11:12:11.051Z,9.33
2019-02-08T11:15:35.903Z,6.67
2019-02-08T11:19:15.394Z,5.47
2019-02-08T11:21:47.858Z,6.93
2019-02-08T11:24:26.913Z,9.63
2019-02-08T11:27:00.983Z,7.17
2019-02-08T11:29:32.307Z,7.40
2019-02-08T11:32:03.541Z,7.73
2019-02-08T11:34:34.799Z,5.47
2019-02-08T11:37:06.152Z,6.70
2019-02-08T11:39:37.393Z,7.50
2019-02-08T11:42:08.841Z,9.67
2019-02-08T11:44:40.041Z,6.43
2019-02-08T11:47:12.313Z,12.10
2019-02-08T11:49:43.511Z,8.00
2019-02-08T11:52:14.629Z,6.77
2019-02-08T11:54:45.874Z,9.80
2019-02-08T11:57:17.099Z,9.37
2019-02-08T11:59:48.423Z,5.40
2019-02-08T12:02:19.682Z,5.73
2019-02-08T12:04:50.974Z,7.10
2019-02-08T12:07:22.210Z,6.40
2019-02-08T12:09:53.469Z,6.67
2019-02-08T12:12:24.670Z,8.03
2019-02-08T12:14:55.888Z,9.00
2019-02-08T12:17:27.350Z,7.28
2019-02-08T12:19:58.651Z,7.90
2019-02-08T12:22:29.890Z,7.75
2019-02-08T12:25:01.162Z,6.75
2019-02-08T12:27:32.379Z,6.90
2019-02-08T12:30:05.216Z,7.93
2019-02-08T12:32:36.548Z,6.17
2019-02-08T12:35:09.106Z,6.20
2019-02-08T12:37:40.933Z,8.03
2019-02-08T12:40:12.450Z,6.90
2019-02-08T12:42:43.700Z,18.70
2019-02-08T12:45:15.472Z,5.40
2019-02-08T12:47:46.759Z,8.10
2019-02-08T12:50:18.100Z,6.40
2019-02-08T12:52:49.387Z,6.47
2019-02-08T12:55:20.554Z,6.62
2019-02-08T12:57:51.857Z,7.60
2019-02-08T13:00:23.329Z,6.40
2019-02-08T13:02:54.945Z,9.10
2019-02-08T13:05:26.130Z,9.60
2019-02-08T13:07:57.289Z,6.28
2019-02-08T13:10:28.999Z,8.08
2019-02-08T13:13:00.136Z,6.03
2019-02-08T13:15:32.400Z,6.60
2019-02-08T13:18:03.547Z,7.87
2019-02-08T13:20:34.800Z,6.73
2019-02-08T13:23:05.971Z,7.27
2019-02-08T13:25:37.332Z,10.10
2019-02-08T13:28:08.476Z,8.00
2019-02-08T13:30:39.715Z,5.83
2019-02-08T13:33:10.966Z,5.17
2019-02-08T13:35:42.188Z,5.70
2019-02-08T13:38:13.438Z,6.50
2019-02-08T13:40:44.701Z,7.28
2019-02-08T13:43:15.973Z,6.37
2019-02-08T13:45:47.178Z,6.17
2019-02-08T13:48:18.405Z,7.40
2019-02-08T13:50:49.584Z,7.28
2019-02-08T13:53:20.772Z,7.40
2019-02-08T13:55:51.974Z,7.33
2019-02-08T13:58:23.173Z,7.03
2019-02-08T14:00:54.319Z,4.97
2019-02-08T14:03:25.522Z,5.40
2019-02-08T14:05:56.811Z,6.10
2019-02-08T14:08:28.176Z,8.40
2019-02-08T14:10:59.497Z,5.40
2019-02-08T14:13:30.684Z,5.97
2019-02-08T14:16:02.003Z,5.10
2019-02-08T14:18:33.471Z,7.70
2019-02-08T14:21:04.958Z,5.40
2019-02-08T14:23:36.147Z,4.10
2019-02-08T14:26:07.324Z,5.05
2019-02-08T14:28:38.654Z,5.87
2019-02-08T14:31:13.363Z,5.75
2019-02-08T14:33:44.810Z,9.57
2019-02-08T14:36:16.104Z,4.37
2019-02-08T14:38:48.212Z,11.50
2019-02-08T14:41:20.356Z,4.55
2019-02-08T14:43:51.916Z,4.20
2019-02-08T14:46:23.264Z,6.53
2019-02-08T14:48:57.199Z,11.33
2019-02-08T14:51:27.763Z,4.17
2019-02-08T14:53:59.083Z,9.53
2019-02-08T14:56:30.896Z,6.05
2019-02-08T14:59:02.626Z,80.85
2019-02-08T15:01:33.865Z,10.80
2019-02-08T15:04:07.544Z,6.22
2019-02-08T15:06:38.686Z,5.22
2019-02-08T15:09:11.463Z,4.73
2019-02-08T15:11:42.685Z,6.35
2019-02-08T15:14:14.303Z,6.73
2019-02-08T15:16:48.808Z,7.70
2019-02-08T15:19:21.153Z,6.10
2019-02-08T15:21:52.660Z,7.47
2019-02-08T15:24:29.344Z,7.35
2019-02-08T15:27:01.108Z,6.17
2019-02-08T15:29:32.870Z,4.50
2019-02-08T15:32:04.366Z,4.17
2019-02-08T15:34:35.810Z,4.57
2019-02-08T15:37:07.585Z,7.17
2019-02-08T15:39:39.234Z,6.70
2019-02-08T15:42:10.965Z,5.27
2019-02-08T15:44:42.770Z,5.00
2019-02-08T15:47:14.090Z,5.40
2019-02-08T15:49:45.532Z,5.20
2019-02-08T15:52:16.798Z,10.03
2019-02-08T15:54:48.022Z,6.57
2019-02-08T15:57:19.318Z,8.60
2019-02-08T15:59:50.547Z,21.63
2019-02-08T16:02:23.075Z,7.77
2019-02-08T16:04:54.325Z,7.60
2019-02-08T16:07:25.466Z,6.13
2019-02-08T16:09:56.750Z,5.17
2019-02-08T16:12:28.099Z,4.93
2019-02-08T16:14:59.625Z,4.70
2019-02-08T16:17:31.001Z,7.07
2019-02-08T16:20:02.258Z,5.73
2019-02-08T16:22:33.665Z,7.87
2019-02-08T16:25:07.019Z,7.43
2019-02-08T16:27:39.918Z,5.27
2019-02-08T16:30:15.625Z,8.00
2019-02-08T16:32:46.990Z,4.83
2019-02-08T16:35:19.952Z,6.30
2019-02-08T16:37:51.432Z,5.20
2019-02-08T16:40:24.688Z,7.00
2019-02-08T16:42:56.147Z,5.47
2019-02-08T16:45:32.442Z,10.40
2019-02-08T16:48:04.787Z,5.90
2019-02-08T16:50:36.241Z,5.90
2019-02-08T16:53:08.573Z,4.80
2019-02-08T16:55:39.836Z,6.60
2019-02-08T16:58:11.492Z,6.23
2019-02-08T17:00:43.284Z,6.33
2019-02-08T17:03:14.573Z,4.90
2019-02-08T17:05:45.981Z,5.80
2019-02-08T17:08:17.218Z,5.87
2019-02-08T17:10:48.719Z,5.30
2019-02-08T17:13:20.174Z,45.87
2019-02-08T17:15:51.350Z,13.37
2019-02-08T17:18:22.594Z,5.23
2019-02-08T17:20:54.234Z,6.93
2019-02-08T17:23:25.536Z,6.13
2019-02-08T17:25:57.031Z,6.97
2019-02-08T17:28:28.238Z,10.33
2019-02-08T17:30:59.431Z,7.30
2019-02-08T17:33:30.787Z,5.63
2019-02-08T17:36:03.096Z,9.43
2019-02-08T17:38:35.651Z,6.87
2019-02-08T17:41:08.468Z,5.37
2019-02-08T17:43:40.169Z,6.23
2019-02-08T17:46:11.383Z,6.50
2019-02-08T17:48:42.613Z,8.17
2019-02-08T17:51:13.904Z,9.83
2019-02-08T17:53:45.148Z,23.17
2019-02-08T17:56:17.436Z,8.57
2019-02-08T17:58:48.710Z,7.47
2019-02-08T18:01:25.416Z,5.90
2019-02-08T18:03:56.747Z,8.27
2019-02-08T18:06:28.260Z,7.40
2019-02-08T18:08:59.629Z,8.10
2019-02-08T18:11:32.018Z,7.70
2019-02-08T18:14:03.227Z,8.60
2019-02-08T18:16:34.441Z,9.70
2019-02-08T18:19:06.738Z,8.83
2019-02-08T18:21:37.884Z,9.23
2019-02-08T18:24:09.360Z,11.20
2019-02-08T18:26:40.657Z,11.27
2019-02-08T18:29:11.975Z,7.43
2019-02-08T18:31:43.089Z,42.77
2019-02-08T18:34:14.307Z,10.83
2019-02-08T18:36:45.578Z,5.10
2019-02-08T18:39:16.856Z,5.57
2019-02-08T18:41:48.098Z,6.97
2019-02-08T18:44:19.342Z,5.83
2019-02-08T18:46:50.722Z,7.27
2019-02-08T18:49:22.459Z,8.53
2019-02-08T18:51:54.453Z,13.70
2019-02-08T18:54:25.884Z,7.83
2019-02-08T18:56:57.043Z,6.67
2019-02-08T18:59:28.331Z,7.07
2019-02-08T19:01:59.559Z,13.13
2019-02-08T19:04:30.747Z,11.77
2019-02-08T19:07:02.135Z,6.60
2019-02-08T19:09:34.605Z,7.43
2019-02-08T19:12:05.785Z,7.37
2019-02-08T19:14:37.055Z,10.47
2019-02-08T19:17:08.304Z,6.03
2019-02-08T19:19:39.490Z,5.23
2019-02-08T19:22:10.753Z,5.30
2019-02-08T19:24:42.019Z,11.13
2019-02-08T19:27:13.384Z,4.63
2019-02-08T19:29:44.746Z,6.80
2019-02-08T19:32:17.115Z,44.13
2019-02-08T19:34:48.391Z,34.07
2019-02-08T19:37:19.917Z,6.43
2019-02-08T19:40:07.213Z,4.87
2019-02-08T19:47:18.953Z,5.20
2019-02-08T19:50:25.247Z,5.10
2019-02-08T19:53:23.686Z,9.00
2019-02-08T19:56:02.789Z,7.07
2019-02-08T19:58:43.697Z,8.80
2019-02-08T20:01:45.176Z,8.63
2019-02-08T20:04:45.239Z,7.77
2019-02-08T20:07:50.468Z,5.50
2019-02-08T20:10:29.509Z,5.93
2019-02-08T20:13:06.745Z,5.57
2019-02-08T20:15:47.936Z,5.93
2019-02-08T20:18:24.582Z,5.07
2019-02-08T20:21:00.927Z,4.93
2019-02-08T20:23:32.253Z,5.03
2019-02-08T20:26:10.367Z,4.80
2019-02-08T20:28:42.668Z,5.67
2019-02-08T20:31:13.990Z,5.77
2019-02-08T20:33:45.237Z,4.80
2019-02-08T20:36:16.473Z,5.07
2019-02-08T20:38:47.729Z,5.80
2019-02-08T20:41:18.948Z,5.33
2019-02-08T20:43:50.384Z,9.53
2019-02-08T20:46:21.633Z,6.27
2019-02-08T20:48:52.753Z,7.40
2019-02-08T20:51:24.116Z,7.23
2019-02-08T20:53:56.521Z,11.33
2019-02-08T20:56:27.816Z,6.43
2019-02-08T20:58:59.257Z,6.07
2019-02-08T21:01:30.598Z,5.03
2019-02-08T21:04:01.786Z,5.63
2019-02-08T21:06:33.073Z,4.60
2019-02-08T21:09:06.802Z,5.13
2019-02-08T21:11:38.155Z,5.17
2019-02-08T21:14:09.589Z,10.63
2019-02-08T21:16:40.841Z,7.00
2019-02-08T21:19:12.043Z,8.57
2019-02-08T21:21:43.312Z,10.27
2019-02-08T21:24:14.670Z,10.87
2019-02-08T21:26:45.898Z,8.80
2019-02-08T21:29:17.096Z,6.43
2019-02-08T21:31:48.405Z,6.60
2019-02-08T21:34:19.642Z,5.93
2019-02-08T21:36:50.916Z,5.93
2019-02-08T21:39:22.129Z,6.93
2019-02-08T21:41:53.202Z,10.03
2019-02-08T21:44:24.413Z,5.77
2019-02-08T21:46:55.580Z,5.63
2019-02-08T21:49:26.921Z,5.87
2019-02-08T21:51:58.533Z,11.00
2019-02-08T21:54:29.889Z,7.37
2019-02-08T21:57:01.185Z,6.00
2019-02-08T21:59:32.540Z,8.47
2019-02-08T22:02:03.750Z,7.63
2019-02-08T22:04:35.881Z,5.60
2019-02-08T22:07:07.067Z,6.10
2019-02-08T22:09:38.472Z,6.70
2019-02-08T22:12:09.705Z,5.70
2019-02-08T22:14:40.909Z,5.93
2019-02-08T22:17:12.142Z,8.33
2019-02-08T22:19:43.418Z,5.67
2019-02-08T22:22:14.764Z,6.33
2019-02-08T22:24:46.059Z,7.60
2019-02-08T22:27:17.275Z,7.80
2019-02-08T22:29:48.426Z,6.60
2019-02-08T22:32:19.651Z,6.07
2019-02-08T22:34:50.837Z,8.57
2019-02-08T22:37:22.034Z,8.33
2019-02-08T22:39:53.305Z,9.90
2019-02-08T22:42:24.615Z,9.23
2019-02-08T22:44:55.779Z,11.83
2019-02-08T22:47:26.999Z,11.83
2019-02-08T22:49:58.260Z,9.10
2019-02-08T22:52:29.636Z,11.97
2019-02-08T22:55:00.930Z,10.40
2019-02-08T22:57:32.330Z,12.83
2019-02-08T23:00:03.537Z,14.27
2019-02-08T23:02:36.841Z,14.67
2019-02-08T23:05:09.536Z,12.60
2019-02-08T23:07:40.630Z,10.13
2019-02-08T23:10:12.868Z,10.13
2019-02-08T23:12:44.759Z,8.70
2019-02-08T23:15:15.978Z,8.27
2019-02-08T23:17:47.138Z,13.27
2019-02-08T23:20:18.356Z,8.03
2019-02-08T23:22:49.613Z,9.87
2019-02-08T23:25:20.881Z,10.00
2019-02-08T23:27:52.151Z,9.33
2019-02-08T23:30:23.606Z,12.83
2019-02-08T23:32:54.807Z,9.00
2019-02-08T23:35:26.339Z,11.37
2019-02-08T23:37:57.596Z,7.67
2019-02-08T23:40:29.425Z,10.33
2019-02-08T23:43:00.596Z,8.87
2019-02-08T23:45:31.866Z,10.23
2019-02-08T23:48:03.055Z,7.73
2019-02-08T23:50:34.263Z,11.67
2019-02-08T23:53:08.300Z,9.53
2019-02-08T23:55:40.067Z,7.83
2019-02-08T23:58:11.209Z,8.13
